Time,TemperatureF,DewpointF,PressureIn,WindDirection,WindDirectionDegrees,WindSpeedMPH,WindSpeedGustMPH,Humidity,HourlyPrecipIn,Conditions,Clouds,dailyrainin,SoftwareType,DateUTC
2013-02-09 00:01:00,50.0,23.0,-100.00,North,3,10.0,-999.0,34,0.00,,,-99.99,,2013-02-09 08:01:00,
2013-02-09 00:11:00,50.0,23.0,-100.00,North,3,10.0,-999.0,34,0.00,,,-99.99,,2013-02-09 08:11:00,
2013-02-09 00:21:00,50.0,23.0,-100.00,North,3,10.0,-999.0,34,0.00,,,-99.99,,2013-02-09 08:21:00,
2013-02-09 00:31:00,50.0,23.0,-100.00,North,3,10.0,-999.0,34,0.00,,,-99.99,,2013-02-09 08:31:00,
2013-02-09 00:41:00,50.0,23.0,-100.00,North,3,10.0,-999.0,34,0.00,,,-99.99,,2013-02-09 08:41:00,
2013-02-09 01:02:00,50.0,22.0,-100.00,North,8,10.0,-999.0,33,0.00,,,-99.99,,2013-02-09 09:02:00,
2013-02-09 01:11:00,50.0,22.0,-100.00,North,8,10.0,-999.0,33,0.00,,,-99.99,,2013-02-09 09:11:00,
2013-02-09 01:21:00,50.0,22.0,-100.00,North,8,10.0,-999.0,33,0.00,,,-99.99,,2013-02-09 09:21:00,
2013-02-09 01:31:00,50.0,22.0,-100.00,North,8,10.0,-999.0,33,0.00,,,-99.99,,2013-02-09 09:31:00,
2013-02-09 01:41:00,50.0,22.0,-100.00,North,8,10.0,-999.0,33,0.00,,,-99.99,,2013-02-09 09:41:00,
2013-02-09 02:01:00,48.0,24.0,-100.00,NNW,342,4.0,-999.0,40,0.00,,,-99.99,,2013-02-09 10:01:00,
2013-02-09 02:11:00,48.0,24.0,-100.00,NNW,342,4.0,-999.0,40,0.00,,,-99.99,,2013-02-09 10:11:00,
2013-02-09 02:21:00,48.0,24.0,-100.00,NNW,342,4.0,-999.0,40,0.00,,,-99.99,,2013-02-09 10:21:00,
2013-02-09 02:31:00,48.0,24.0,-100.00,NNW,342,4.0,-999.0,40,0.00,,,-99.99,,2013-02-09 10:31:00,
2013-02-09 02:41:00,48.0,24.0,-100.00,NNW,342,4.0,-999.0,40,0.00,,,-99.99,,2013-02-09 10:41:00,
2013-02-09 03:01:00,47.0,22.0,-100.00,North,355,1.0,-999.0,37,0.00,,,-99.99,,2013-02-09 11:01:00,
2013-02-09 03:11:00,47.0,22.0,-100.00,North,355,1.0,-999.0,37,0.00,,,-99.99,,2013-02-09 11:11:00,
2013-02-09 03:21:00,47.0,22.0,-100.00,North,355,1.0,-999.0,37,0.00,,,-99.99,,2013-02-09 11:21:00,
2013-02-09 03:31:00,47.0,22.0,-100.00,North,355,1.0,-999.0,37,0.00,,,-99.99,,2013-02-09 11:31:00,
2013-02-09 03:41:00,47.0,22.0,-100.00,North,355,1.0,-999.0,37,0.00,,,-99.99,,2013-02-09 11:41:00,
2013-02-09 04:02:00,43.0,26.0,-100.00,WSW,258,5.0,-999.0,52,0.00,,,-99.99,,2013-02-09 12:02:00,
2013-02-09 04:11:00,43.0,26.0,-100.00,WSW,258,5.0,-999.0,52,0.00,,,-99.99,,2013-02-09 12:11:00,
2013-02-09 04:21:00,43.0,26.0,-100.00,WSW,258,5.0,-999.0,52,0.00,,,-99.99,,2013-02-09 12:21:00,
2013-02-09 04:32:00,43.0,26.0,-100.00,WSW,258,5.0,-999.0,52,0.00,,,-99.99,,2013-02-09 12:32:00,
2013-02-09 04:41:00,43.0,26.0,-100.00,WSW,258,5.0,-999.0,52,0.00,,,-99.99,,2013-02-09 12:41:00,
2013-02-09 05:02:00,43.0,28.0,-100.00,SE,127,7.0,-999.0,56,0.00,,,-99.99,,2013-02-09 13:02:00,
2013-02-09 05:11:00,43.0,28.0,-100.00,SE,127,7.0,-999.0,56,0.00,,,-99.99,,2013-02-09 13:11:00,
2013-02-09 05:21:00,43.0,28.0,-100.00,SE,127,7.0,-999.0,56,0.00,,,-99.99,,2013-02-09 13:21:00,
2013-02-09 05:31:00,43.0,28.0,-100.00,SE,127,7.0,-999.0,56,0.00,,,-99.99,,2013-02-09 13:31:00,
2013-02-09 05:41:00,43.0,28.0,-100.00,SE,127,7.0,-999.0,56,0.00,,,-99.99,,2013-02-09 13:41:00,
2013-02-09 06:01:00,42.0,30.0,-100.00,SE,126,7.0,-999.0,61,0.00,,,-99.99,,2013-02-09 14:01:00,
2013-02-09 06:11:00,42.0,30.0,-100.00,SE,126,7.0,-999.0,61,0.00,,,-99.99,,2013-02-09 14:11:00,
2013-02-09 06:21:00,42.0,30.0,-100.00,SE,126,7.0,-999.0,61,0.00,,,-99.99,,2013-02-09 14:21:00,
2013-02-09 06:31:00,42.0,30.0,-100.00,SE,126,7.0,-999.0,61,0.00,,,-99.99,,2013-02-09 14:31:00,
2013-02-09 06:41:00,42.0,30.0,-100.00,SE,126,7.0,-999.0,61,0.00,,,-99.99,,2013-02-09 14:41:00,
2013-02-09 07:01:00,43.0,32.0,-100.00,ESE,120,6.0,-999.0,65,0.00,,,-99.99,,2013-02-09 15:01:00,
2013-02-09 07:11:00,43.0,32.0,-100.00,ESE,120,6.0,-999.0,65,0.00,,,-99.99,,2013-02-09 15:11:00,
2013-02-09 07:21:00,43.0,32.0,-100.00,ESE,120,6.0,-999.0,65,0.00,,,-99.99,,2013-02-09 15:21:00,
2013-02-09 07:32:00,43.0,-99.9,-100.00,ESE,120,6.0,-999.0,65,0.00,,,-99.99,,2013-02-09 15:32:00,
2013-02-09 07:41:00,43.0,32.0,-100.00,ESE,120,6.0,-999.0,65,0.00,,,-99.99,,2013-02-09 15:41:00,
2013-02-09 08:01:00,41.0,35.0,-100.00,SE,128,8.0,-999.0,76,0.00,,,-99.99,,2013-02-09 16:01:00,
2013-02-09 08:11:00,41.0,35.0,-100.00,SE,128,8.0,-999.0,76,0.00,,,-99.99,,2013-02-09 16:11:00,
2013-02-09 08:21:00,41.0,35.0,-100.00,SE,128,8.0,-999.0,76,0.00,,,-99.99,,2013-02-09 16:21:00,
2013-02-09 08:31:00,41.0,35.0,-100.00,SE,128,8.0,-999.0,76,0.00,,,-99.99,,2013-02-09 16:31:00,
2013-02-09 08:41:00,41.0,35.0,-100.00,SE,128,8.0,-999.0,76,0.00,,,-99.99,,2013-02-09 16:41:00,
2013-02-09 09:01:00,44.0,38.0,-100.00,SSE,151,6.0,-999.0,78,0.00,,,-99.99,,2013-02-09 17:01:00,
2013-02-09 09:11:00,44.0,-99.9,-100.00,SSE,151,6.0,-999.0,78,0.00,,,-99.99,,2013-02-09 17:11:00,
2013-02-09 09:22:00,44.0,-99.9,-100.00,SSE,151,6.0,-999.0,78,0.00,,,-99.99,,2013-02-09 17:22:00,
2013-02-09 09:32:00,44.0,-99.9,-100.00,SSE,151,6.0,-999.0,78,0.00,,,-99.99,,2013-02-09 17:32:00,
2013-02-09 09:41:00,44.0,38.0,-100.00,SSE,151,6.0,-999.0,78,0.00,,,-99.99,,2013-02-09 17:41:00,
2013-02-09 10:01:00,49.0,34.0,-100.00,WSW,243,2.0,-999.0,55,0.00,,,-99.99,,2013-02-09 18:01:00,
2013-02-09 10:12:00,49.0,34.0,-100.00,WSW,243,2.0,-999.0,55,0.00,,,-99.99,,2013-02-09 18:12:00,
2013-02-09 10:23:00,49.0,34.0,-100.00,WSW,243,2.0,-999.0,55,0.00,,,-99.99,,2013-02-09 18:23:00,
2013-02-09 10:31:00,49.0,34.0,-100.00,WSW,243,2.0,-999.0,55,0.00,,,-99.99,,2013-02-09 18:31:00,
2013-02-09 10:41:00,49.0,34.0,-100.00,WSW,243,2.0,-999.0,55,0.00,,,-99.99,,2013-02-09 18:41:00,
2013-02-09 11:01:00,54.0,25.0,-100.00,WNW,299,4.0,-999.0,33,0.00,,,-99.99,,2013-02-09 19:01:00,
2013-02-09 11:11:00,54.0,25.0,-100.00,WNW,299,4.0,-999.0,33,0.00,,,-99.99,,2013-02-09 19:11:00,
2013-02-09 11:22:00,54.0,25.0,-100.00,WNW,299,4.0,-999.0,33,0.00,,,-99.99,,2013-02-09 19:22:00,
2013-02-09 11:31:00,54.0,25.0,-100.00,WNW,299,4.0,-999.0,33,0.00,,,-99.99,,2013-02-09 19:31:00,
2013-02-09 11:41:00,54.0,25.0,-100.00,WNW,299,4.0,-999.0,33,0.00,,,-99.99,,2013-02-09 19:41:00,
2013-02-09 12:01:00,55.0,23.0,-100.00,NW,324,4.0,-999.0,28,0.00,,,-99.99,,2013-02-09 20:01:00,
2013-02-09 12:11:00,55.0,23.0,-100.00,NW,324,4.0,-999.0,28,0.00,,,-99.99,,2013-02-09 20:11:00,
2013-02-09 12:21:00,55.0,23.0,-100.00,NW,324,4.0,-999.0,28,0.00,,,-99.99,,2013-02-09 20:21:00,
2013-02-09 12:31:00,55.0,23.0,-100.00,NW,324,4.0,-999.0,28,0.00,,,-99.99,,2013-02-09 20:31:00,
2013-02-09 12:41:00,55.0,23.0,-100.00,NW,324,4.0,-999.0,28,0.00,,,-99.99,,2013-02-09 20:41:00,
2013-02-09 13:01:00,56.0,25.0,-100.00,SSW,206,5.0,-999.0,30,0.00,,,-99.99,,2013-02-09 21:01:00,
2013-02-09 13:11:00,56.0,25.0,-100.00,SSW,206,5.0,-999.0,30,0.00,,,-99.99,,2013-02-09 21:11:00,
2013-02-09 13:21:00,56.0,25.0,-100.00,SSW,206,5.0,-999.0,30,0.00,,,-99.99,,2013-02-09 21:21:00,
2013-02-09 13:31:00,56.0,25.0,-100.00,SSW,206,5.0,-999.0,30,0.00,,,-99.99,,2013-02-09 21:31:00,
2013-02-09 13:41:00,56.0,25.0,-100.00,SSW,206,5.0,-999.0,30,0.00,,,-99.99,,2013-02-09 21:41:00,
2013-02-09 14:01:00,57.0,25.0,-100.00,SW,219,8.0,-999.0,30,0.00,,,-99.99,,2013-02-09 22:01:00,
2013-02-09 14:11:00,57.0,25.0,-100.00,SW,219,8.0,-999.0,30,0.00,,,-99.99,,2013-02-09 22:11:00,
2013-02-09 14:21:00,57.0,25.0,-100.00,SW,219,8.0,-999.0,30,0.00,,,-99.99,,2013-02-09 22:21:00,
2013-02-09 14:31:00,57.0,25.0,-100.00,SW,219,8.0,-999.0,30,0.00,,,-99.99,,2013-02-09 22:31:00,
2013-02-09 14:41:00,57.0,25.0,-100.00,SW,219,8.0,-999.0,30,0.00,,,-99.99,,2013-02-09 22:41:00,
2013-02-09 15:01:00,57.0,27.0,-100.00,SSW,207,6.0,-999.0,31,0.00,,,-99.99,,2013-02-09 23:01:00,
2013-02-09 15:11:00,57.0,27.0,-100.00,SSW,207,6.0,-999.0,31,0.00,,,-99.99,,2013-02-09 23:11:00,
2013-02-09 15:21:00,57.0,27.0,-100.00,SSW,207,6.0,-999.0,31,0.00,,,-99.99,,2013-02-09 23:21:00,
2013-02-09 15:31:00,57.0,27.0,-100.00,SSW,207,6.0,-999.0,31,0.00,,,-99.99,,2013-02-09 23:31:00,
2013-02-09 15:41:00,57.0,27.0,-100.00,SSW,207,6.0,-999.0,31,0.00,,,-99.99,,2013-02-09 23:41:00,
2013-02-09 16:02:00,58.0,26.0,-100.00,SSW,209,6.0,-999.0,30,0.00,,,-99.99,,2013-02-10 00:02:00,
2013-02-09 16:11:00,58.0,26.0,-100.00,SSW,209,6.0,-999.0,30,0.00,,,-99.99,,2013-02-10 00:11:00,
2013-02-09 16:21:00,58.0,26.0,-100.00,SSW,209,6.0,-999.0,30,0.00,,,-99.99,,2013-02-10 00:21:00,
2013-02-09 16:31:00,58.0,26.0,-100.00,SSW,209,6.0,-999.0,30,0.00,,,-99.99,,2013-02-10 00:31:00,
2013-02-09 16:41:00,58.0,26.0,-100.00,SSW,209,6.0,-999.0,30,0.00,,,-99.99,,2013-02-10 00:41:00,
2013-02-09 17:01:00,57.0,27.0,-100.00,SSW,204,6.0,-999.0,31,0.00,,,-99.99,,2013-02-10 01:01:00,
2013-02-09 17:11:00,57.0,27.0,-100.00,SSW,204,6.0,-999.0,31,0.00,,,-99.99,,2013-02-10 01:11:00,
2013-02-09 17:21:00,57.0,27.0,-100.00,SSW,204,6.0,-999.0,31,0.00,,,-99.99,,2013-02-10 01:21:00,
2013-02-09 17:31:00,57.0,27.0,-100.00,SSW,204,6.0,-999.0,31,0.00,,,-99.99,,2013-02-10 01:31:00,
2013-02-09 17:41:00,57.0,27.0,-100.00,SSW,204,6.0,-999.0,31,0.00,,,-99.99,,2013-02-10 01:41:00,
2013-02-09 18:01:00,54.0,32.0,-100.00,SW,218,2.0,-999.0,44,0.00,,,-99.99,,2013-02-10 02:01:00,
2013-02-09 18:11:00,54.0,32.0,-100.00,SW,218,2.0,-999.0,44,0.00,,,-99.99,,2013-02-10 02:11:00,
2013-02-09 18:22:00,54.0,32.0,-100.00,SW,218,2.0,-999.0,44,0.00,,,-99.99,,2013-02-10 02:22:00,
2013-02-09 18:31:00,54.0,32.0,-100.00,SW,218,2.0,-999.0,44,0.00,,,-99.99,,2013-02-10 02:31:00,
2013-02-09 18:41:00,54.0,32.0,-100.00,SW,218,2.0,-999.0,44,0.00,,,-99.99,,2013-02-10 02:41:00,
2013-02-09 19:01:00,50.0,32.0,-100.00,WSW,239,1.0,-999.0,51,0.00,,,-99.99,,2013-02-10 03:01:00,
2013-02-09 19:11:00,50.0,32.0,-100.00,WSW,239,1.0,-999.0,51,0.00,,,-99.99,,2013-02-10 03:11:00,
2013-02-09 19:21:00,50.0,32.0,-100.00,WSW,239,1.0,-999.0,51,0.00,,,-99.99,,2013-02-10 03:21:00,
2013-02-09 19:31:00,50.0,32.0,-100.00,WSW,239,1.0,-999.0,51,0.00,,,-99.99,,2013-02-10 03:31:00,
2013-02-09 19:41:00,50.0,32.0,-100.00,WSW,239,1.0,-999.0,51,0.00,,,-99.99,,2013-02-10 03:41:00,
2013-02-09 20:01:00,49.0,33.0,-100.00,WSW,252,4.0,-999.0,54,0.00,,,-99.99,,2013-02-10 04:01:00,
2013-02-09 20:11:00,49.0,33.0,-100.00,WSW,252,4.0,-999.0,54,0.00,,,-99.99,,2013-02-10 04:11:00,
2013-02-09 20:21:00,49.0,33.0,-100.00,WSW,252,4.0,-999.0,54,0.00,,,-99.99,,2013-02-10 04:21:00,
2013-02-09 20:31:00,49.0,33.0,-100.00,WSW,252,4.0,-999.0,54,0.00,,,-99.99,,2013-02-10 04:31:00,
2013-02-09 20:41:00,49.0,33.0,-100.00,WSW,252,4.0,-999.0,54,0.00,,,-99.99,,2013-02-10 04:41:00,
2013-02-09 21:01:00,43.0,34.0,-100.00,WNW,290,2.0,-999.0,70,0.00,,,-99.99,,2013-02-10 05:01:00,
2013-02-09 21:11:00,43.0,34.0,-100.00,WNW,290,2.0,-999.0,70,0.00,,,-99.99,,2013-02-10 05:11:00,
2013-02-09 21:22:00,43.0,34.0,-100.00,WNW,290,2.0,-999.0,70,0.00,,,-99.99,,2013-02-10 05:22:00,
2013-02-09 21:31:00,43.0,34.0,-100.00,WNW,290,2.0,-999.0,70,0.00,,,-99.99,,2013-02-10 05:31:00,
2013-02-09 21:41:00,43.0,34.0,-100.00,WNW,290,2.0,-999.0,70,0.00,,,-99.99,,2013-02-10 05:41:00,
2013-02-09 22:01:00,45.0,32.0,-100.00,SSW,195,2.0,-999.0,59,0.00,,,-99.99,,2013-02-10 06:01:00,
2013-02-09 22:11:00,45.0,32.0,-100.00,SSW,195,2.0,-999.0,59,0.00,,,-99.99,,2013-02-10 06:11:00,
2013-02-09 22:21:00,45.0,32.0,-100.00,SSW,195,2.0,-999.0,59,0.00,,,-99.99,,2013-02-10 06:21:00,
2013-02-09 22:32:00,45.0,32.0,-100.00,SSW,195,2.0,-999.0,59,0.00,,,-99.99,,2013-02-10 06:32:00,
2013-02-09 22:42:00,45.0,32.0,-100.00,SSW,195,2.0,-999.0,59,0.00,,,-99.99,,2013-02-10 06:42:00,
2013-02-09 23:01:00,40.0,35.0,-100.00,West,262,1.0,-999.0,82,0.00,,,-99.99,,2013-02-10 07:01:00,
2013-02-09 23:11:00,40.0,35.0,-100.00,West,262,1.0,-999.0,82,0.00,,,-99.99,,2013-02-10 07:11:00,
2013-02-09 23:21:00,40.0,35.0,-100.00,West,262,1.0,-999.0,82,0.00,,,-99.99,,2013-02-10 07:21:00,
2013-02-09 23:31:00,40.0,35.0,-100.00,West,262,1.0,-999.0,82,0.00,,,-99.99,,2013-02-10 07:31:00,
2013-02-09 23:41:00,40.0,35.0,-100.00,West,262,1.0,-999.0,82,0.00,,,-99.99,,2013-02-10 07:41:00,